Time;durP1;ratioP1;P1;durP2;ratioP2;P2;SDS_P1;SDS_P2;PMS_P1;PMS_P2;Temp;Humidity;BMP_temperature;BMP_pressure;BME280_temperature;BME280_humidity;BME280_pressure;Samples;Min_cycle;Max_cycle;Signal;HPM_P1;HPM_P2
2022/05/01 00:01:17;;;;;;;9.98;6.53;;;;;;;11.52;61.80;102408.97;5094170;28;20048;-61
2022/05/01 00:03:43;;;;;;;11.43;6.97;;;;;;;11.50;61.77;102409.75;5094145;28;20031;-61
2022/05/01 00:06:10;;;;;;;9.85;6.68;;;;;;;11.47;62.17;102407.91;5094125;28;20031;-60
2022/05/01 00:08:39;;;;;;;9.40;6.78;;;;;;;11.43;62.25;102408.66;5094176;28;20028;-60
2022/05/01 00:11:05;;;;;;;12.18;6.82;;;;;;;11.45;62.47;102406.97;5094107;28;20024;-60
2022/05/01 00:13:32;;;;;;;13.85;6.85;;;;;;;11.46;62.04;102411.41;5092984;28;20038;-60
2022/05/01 00:15:57;;;;;;;10.93;6.85;;;;;;;11.45;62.09;102409.63;5093897;28;20465;-61
2022/05/01 00:18:23;;;;;;;11.30;7.05;;;;;;;11.39;62.42;102404.13;5093984;28;20027;-60
2022/05/01 00:20:49;;;;;;;9.65;7.15;;;;;;;11.41;62.48;102405.06;5093801;28;20449;-60
2022/05/01 00:23:15;;;;;;;11.70;7.45;;;;;;;11.41;62.43;102401.53;5093761;28;20051;-61
2022/05/01 00:25:42;;;;;;;8.50;6.97;;;;;;;11.40;62.73;102407.69;5094034;28;20020;-60
2022/05/01 00:28:11;;;;;;;12.23;7.07;;;;;;;11.36;62.67;102398.75;5093815;28;20024;-60
2022/05/01 00:30:37;;;;;;;10.27;6.97;;;;;;;11.35;62.65;102403.97;5093673;28;20467;-61
2022/05/01 00:38:31;;;;;;;12.98;7.90;;;;;;;11.48;62.06;102396.50;5093949;28;20058;-60
2022/05/01 00:40:57;;;;;;;9.30;7.50;;;;;;;11.46;62.38;102405.22;5093852;28;20465;-60
2022/05/01 00:43:23;;;;;;;10.43;7.93;;;;;;;11.45;62.25;102396.38;5093742;28;20100;-60
2022/05/01 00:45:48;;;;;;;10.77;7.43;;;;;;;11.36;62.94;102398.75;5093385;28;20501;-60
2022/05/01 00:48:14;;;;;;;10.27;7.38;;;;;;;11.38;62.69;102406.72;5093430;28;20028;-60
2022/05/01 00:50:41;;;;;;;11.00;8.00;;;;;;;11.37;62.94;102397.88;5093488;28;20035;-60
2022/05/01 00:53:09;;;;;;;12.57;7.75;;;;;;;11.46;62.17;102402.56;5093236;28;20396;-60
2022/05/01 00:55:36;;;;;;;11.45;8.18;;;;;;;11.42;62.89;102396.28;5093286;28;20474;-61
2022/05/01 00:58:04;;;;;;;8.93;7.35;;;;;;;11.45;62.74;102396.38;5093326;28;20027;-60
2022/05/01 01:00:30;;;;;;;10.55;8.13;;;;;;;11.38;62.61;102390.84;5093188;28;20089;-60
2022/05/01 01:02:55;;;;;;;11.23;8.05;;;;;;;11.42;62.61;102392.72;5093323;28;20458;-60
2022/05/01 01:05:21;;;;;;;10.73;7.75;;;;;;;11.40;62.38;102386.50;5093475;28;20028;-60
2022/05/01 01:07:47;;;;;;;13.15;8.40;;;;;;;11.45;62.33;102387.53;5093222;28;20024;-60
2022/05/01 01:10:12;;;;;;;12.88;8.20;;;;;;;11.52;62.07;102392.19;5093251;28;20024;-60
2022/05/01 01:12:56;;;;;;;10.52;7.97;;;;;;;11.65;61.89;102380.22;5093176;28;20020;-60
2022/05/01 01:15:28;;;;;;;12.50;7.78;;;;;;;11.72;61.66;102380.44;5092967;28;20024;-60
2022/05/01 01:17:54;;;;;;;9.25;7.75;;;;;;;11.70;61.33;102384.81;5093376;28;20028;-60
2022/05/01 01:20:25;;;;;;;11.43;8.50;;;;;;;11.64;61.67;102381.97;5093110;28;20028;-60
2022/05/01 01:22:53;;;;;;;12.10;7.75;;;;;;;11.63;61.99;102395.16;5093101;28;20024;-60
2022/05/01 01:25:22;;;;;;;10.68;7.90;;;;;;;11.67;62.00;102391.75;5096556;28;20358;-60
2022/05/01 01:27:49;;;;;;;12.38;8.43;;;;;;;11.66;62.18;102388.22;5097177;28;20115;-61
2022/05/01 01:33:14;;;;;;;12.63;8.38;;;;;;;11.58;62.00;102384.44;5034869;28;20419;-60
2022/05/01 01:35:40;;;;;;;10.43;7.85;;;;;;;11.55;62.01;102389.63;5034815;28;20034;-60
2022/05/01 01:38:06;;;;;;;13.27;7.70;;;;;;;11.56;61.94;102385.22;5034784;28;20030;-60
2022/05/01 01:40:39;;;;;;;11.48;8.13;;;;;;;11.53;62.16;102379.00;5034506;28;20514;-60
2022/05/01 01:43:05;;;;;;;13.65;9.15;;;;;;;11.45;62.48;102383.16;5034668;28;20708;-60
2022/05/01 01:45:31;;;;;;;13.25;8.65;;;;;;;11.43;62.36;102382.19;5034612;28;20029;-60
2022/05/01 01:48:08;;;;;;;13.32;8.85;;;;;;;11.37;62.38;102378.47;5034507;28;20036;-60
2022/05/01 01:50:33;;;;;;;10.48;8.63;;;;;;;11.38;62.48;102373.19;5034457;28;20037;-60
2022/05/01 01:52:59;;;;;;;11.40;8.65;;;;;;;11.44;62.78;102375.16;5034227;28;20041;-61
2022/05/01 01:55:24;;;;;;;11.48;8.50;;;;;;;11.46;62.58;102376.09;5034333;28;20540;-61
2022/05/01 01:57:50;;;;;;;11.18;8.57;;;;;;;11.48;62.77;102377.06;5017841;28;20029;-60
2022/05/01 02:00:15;;;;;;;9.68;8.23;;;;;;;11.48;62.91;102374.41;5034374;28;20061;-61
2022/05/01 02:02:41;;;;;;;15.52;9.27;;;;;;;11.47;62.60;102384.06;5034311;28;20462;-60
2022/05/01 02:05:08;;;;;;;11.38;8.45;;;;;;;11.40;63.03;102378.56;5034188;28;20030;-60
2022/05/01 02:07:34;;;;;;;12.98;9.00;;;;;;;11.45;63.25;102383.16;5034215;28;20029;-60
2022/05/01 02:10:03;;;;;;;14.00;8.82;;;;;;;11.38;63.29;102375.84;5096204;28;20024;-60
2022/05/01 02:12:29;;;;;;;12.38;9.27;;;;;;;11.44;62.76;102369.88;5096586;28;20358;-60
2022/05/01 02:14:55;;;;;;;13.65;8.35;;;;;;;11.45;62.80;102369.91;5096373;28;20141;-60
2022/05/01 02:17:20;;;;;;;12.00;8.32;;;;;;;11.48;62.86;102367.38;5096356;28;20023;-60
2022/05/01 02:19:46;;;;;;;12.80;8.52;;;;;;;11.49;62.66;102369.16;5096329;28;20020;-60
2022/05/01 02:22:11;;;;;;;12.93;8.45;;;;;;;11.47;62.91;102370.84;5096460;28;20024;-60
2022/05/01 02:24:36;;;;;;;11.70;8.60;;;;;;;11.39;63.13;102371.44;5077703;28;20485;-61
2022/05/01 02:27:02;;;;;;;13.13;8.85;;;;;;;11.34;62.96;102365.13;5096363;28;20055;-60
2022/05/01 02:29:27;;;;;;;17.30;9.02;;;;;;;11.31;62.83;102370.34;5095926;28;20028;-60
2022/05/01 02:31:53;;;;;;;13.50;9.32;;;;;;;11.24;63.53;102364.81;5096163;28;20024;-60
2022/05/01 02:34:23;;;;;;;13.32;9.10;;;;;;;11.18;63.40;102363.75;5096060;28;20024;-61
2022/05/01 02:36:51;;;;;;;12.90;9.35;;;;;;;11.11;63.79;102353.81;5094677;28;20484;-60
2022/05/01 02:39:17;;;;;;;15.27;9.60;;;;;;;11.04;64.18;102355.34;5077674;28;20056;-61
2022/05/01 02:41:43;;;;;;;13.90;9.40;;;;;;;10.99;64.08;102346.34;5095841;28;20385;-60
2022/05/01 02:44:09;;;;;;;11.32;8.88;;;;;;;11.05;64.25;102349.22;5095634;28;20035;-60
2022/05/01 02:46:35;;;;;;;11.77;8.93;;;;;;;11.06;63.89;102356.31;5095798;28;20028;-60
2022/05/01 02:49:01;;;;;;;12.52;9.35;;;;;;;11.06;64.01;102350.13;5095808;28;20534;-61
2022/05/01 02:51:26;;;;;;;14.98;9.50;;;;;;;11.04;64.37;102350.03;5096137;28;20464;-60
2022/05/01 02:53:52;;;;;;;14.70;9.32;;;;;;;11.02;64.20;102350.00;5096339;28;20082;-61
2022/05/01 02:56:17;;;;;;;13.07;9.65;;;;;;;11.00;63.79;102350.78;5095899;28;20032;-61
2022/05/01 02:58:42;;;;;;;13.63;9.10;;;;;;;10.96;63.99;102347.16;5095521;28;20024;-60
2022/05/01 03:01:08;;;;;;;14.63;9.13;;;;;;;10.94;64.06;102342.66;5095449;28;20429;-60
2022/05/01 03:03:35;;;;;;;12.10;9.23;;;;;;;10.96;64.27;102339.25;5095531;28;20028;-60
2022/05/01 03:06:00;;;;;;;12.88;9.18;;;;;;;10.89;64.29;102339.88;5095377;28;20032;-60
2022/05/01 03:08:27;;;;;;;14.10;9.90;;;;;;;10.85;64.41;102350.28;5095332;28;20023;-60
2022/05/01 03:10:52;;;;;;;13.20;9.95;;;;;;;10.89;64.34;102339.88;5095444;28;20024;-60
2022/05/01 03:13:18;;;;;;;13.48;9.52;;;;;;;10.83;64.17;102346.69;5095475;28;20085;-60
2022/05/01 03:15:44;;;;;;;13.02;9.25;;;;;;;10.80;64.70;102338.66;5095200;28;20099;-60
2022/05/01 03:23:37;;;;;;;14.25;9.80;;;;;;;10.93;64.17;102340.88;5094866;28;20047;-61
2022/05/01 03:26:03;;;;;;;13.55;8.98;;;;;;;10.90;64.02;102331.09;5095126;28;20024;-61
2022/05/01 03:28:29;;;;;;;11.60;8.57;;;;;;;10.90;64.02;102330.19;5094942;28;20028;-60
2022/05/01 03:30:54;;;;;;;16.27;9.45;;;;;;;10.87;64.41;102332.72;5094847;28;20059;-61
2022/05/01 03:33:22;;;;;;;13.82;9.95;;;;;;;10.82;64.68;102329.03;5094898;28;20054;-60
2022/05/01 03:35:49;;;;;;;13.07;9.25;;;;;;;10.79;64.72;102327.16;5094925;28;20039;-60
2022/05/01 03:38:15;;;;;;;15.43;9.68;;;;;;;10.82;64.59;102329.03;5094726;28;20028;-62
2022/05/01 03:40:41;;;;;;;14.70;9.45;;;;;;;10.81;64.39;102328.13;5094929;28;20020;-60
2022/05/01 03:43:06;;;;;;;15.43;9.38;;;;;;;10.88;64.24;102326.59;5094580;28;20035;-61
2022/05/01 03:45:32;;;;;;;14.15;9.77;;;;;;;10.94;64.08;102325.03;5094563;28;20088;-60
2022/05/01 03:47:58;;;;;;;15.63;9.77;;;;;;;11.04;63.94;102324.50;5094259;28;20020;-61
2022/05/01 03:50:23;;;;;;;15.27;9.52;;;;;;;11.08;63.92;102322.84;5094359;28;20465;-61
2022/05/01 03:52:48;;;;;;;15.35;9.73;;;;;;;11.06;64.07;102328.94;5094419;28;20121;-61
2022/05/01 03:55:14;;;;;;;15.40;9.60;;;;;;;11.00;64.09;102327.88;5092044;28;20051;-61
2022/05/01 03:57:39;;;;;;;12.73;9.38;;;;;;;10.97;64.03;102324.25;5094261;28;20531;-60
2022/05/01 04:00:06;;;;;;;12.60;9.00;;;;;;;10.96;64.14;102318.06;5094390;28;20024;-61
2022/05/01 04:02:40;;;;;;;12.65;9.30;;;;;;;11.00;64.12;102327.88;5094204;28;20034;-60
2022/05/01 04:05:07;;;;;;;13.68;9.95;;;;;;;10.98;64.07;102326.94;5094250;28;20032;-60
2022/05/01 04:07:32;;;;;;;13.63;9.80;;;;;;;10.94;64.44;102324.16;5094012;28;20050;-60
2022/05/01 04:09:57;;;;;;;12.65;9.75;;;;;;;10.88;64.41;102323.97;5094088;28;20035;-60
2022/05/01 04:12:22;;;;;;;16.13;10.38;;;;;;;10.76;64.88;102327.97;5093978;28;20024;-60
2022/05/01 04:14:48;;;;;;;13.63;10.52;;;;;;;10.69;65.42;102328.59;5075615;28;20055;-60
2022/05/01 04:17:13;;;;;;;17.20;10.32;;;;;;;10.66;65.36;102323.25;5094125;28;20055;-60
2022/05/01 04:19:39;;;;;;;15.10;10.07;;;;;;;10.64;65.69;102332.84;5093650;28;20098;-60
2022/05/01 04:22:04;;;;;;;14.95;9.85;;;;;;;10.68;65.35;102336.50;5074879;28;20036;-61
2022/05/01 04:24:29;;;;;;;17.27;10.15;;;;;;;10.66;65.45;102325.88;5093067;28;20469;-60
2022/05/01 04:26:55;;;;;;;18.42;10.55;;;;;;;10.60;65.64;102333.59;5093297;28;20434;-60
2022/05/01 04:29:36;;;;;;;18.73;10.77;;;;;;;10.58;65.57;102326.44;5093201;28;20028;-60
2022/05/01 04:32:02;;;;;;;14.57;9.88;;;;;;;10.58;65.68;102337.94;5093383;28;20024;-60
2022/05/01 04:34:27;;;;;;;15.27;10.35;;;;;;;10.53;66.20;102323.63;5092838;28;20419;-61
2022/05/01 04:36:52;;;;;;;17.60;10.70;;;;;;;10.49;66.43;102321.72;5093182;28;20034;-60
2022/05/01 04:39:17;;;;;;;15.52;10.30;;;;;;;10.57;66.10;102322.00;5092852;28;20114;-60
2022/05/01 04:41:43;;;;;;;15.20;10.27;;;;;;;10.57;65.83;102325.53;5093127;28;20032;-60
2022/05/01 04:44:08;;;;;;;14.45;10.23;;;;;;;10.62;65.64;102331.91;5092603;28;20032;-60
2022/05/01 04:46:34;;;;;;;14.80;10.43;;;;;;;10.63;65.43;102331.06;5093034;28;20055;-60
2022/05/01 04:48:59;;;;;;;14.57;9.82;;;;;;;10.60;65.76;102332.69;5092792;28;20393;-60
2022/05/01 04:51:24;;;;;;;12.98;10.20;;;;;;;10.62;66.01;102325.69;5092811;28;20415;-60
2022/05/01 04:53:50;;;;;;;14.10;10.07;;;;;;;10.63;65.72;102330.16;5092710;28;20040;-61
2022/05/01 04:58:59;;;;;;;13.95;10.50;;;;;;;10.64;65.50;102337.25;5092230;28;20484;-61
2022/05/01 05:01:24;;;;;;;14.52;10.60;;;;;;;10.64;66.08;102339.88;5092577;28;20483;-61
2022/05/01 05:03:50;;;;;;;18.60;11.38;;;;;;;10.61;65.80;102339.78;5092630;28;20527;-61
2022/05/01 05:06:15;;;;;;;16.10;11.52;;;;;;;10.59;66.11;102345.00;5092343;28;20115;-61
2022/05/01 05:11:24;;;;;;;15.20;11.30;;;;;;;10.53;66.54;102340.44;5093689;28;20035;-60
2022/05/01 05:13:52;;;;;;;16.92;10.98;;;;;;;10.47;66.62;102347.22;5094965;28;20028;-60
2022/05/01 05:16:17;;;;;;;16.73;11.43;;;;;;;10.46;67.05;102348.06;5092644;28;20092;-60
2022/05/01 05:18:43;;;;;;;19.98;12.02;;;;;;;10.38;67.22;102347.81;5092782;28;20024;-60
2022/05/01 05:21:08;;;;;;;18.63;11.68;;;;;;;10.34;67.52;102348.53;5092307;28;20024;-60
2022/05/01 05:23:34;;;;;;;15.73;11.40;;;;;;;10.38;67.63;102344.25;5092390;28;20077;-60
2022/05/01 05:26:00;;;;;;;16.95;11.70;;;;;;;10.37;67.73;102353.03;5092590;28;20032;-60
2022/05/01 05:28:26;;;;;;;20.40;12.02;;;;;;;10.35;67.85;102360.00;5092420;28;20020;-60
2022/05/01 05:30:51;;;;;;;17.08;12.70;;;;;;;10.31;68.19;102351.06;5092534;28;20093;-60
2022/05/01 05:33:18;;;;;;;16.67;12.23;;;;;;;10.40;67.60;102350.47;5092075;28;20469;-60
2022/05/01 05:35:43;;;;;;;15.90;11.65;;;;;;;10.31;68.27;102350.16;5092138;28;20024;-60
2022/05/01 05:38:09;;;;;;;15.57;11.40;;;;;;;10.40;68.43;102359.31;5092087;28;20149;-60
2022/05/01 05:40:34;;;;;;;19.42;13.07;;;;;;;10.38;68.39;102362.75;5092364;28;20035;-60
2022/05/01 05:43:00;;;;;;;21.60;12.45;;;;;;;10.43;68.62;102356.78;5092205;28;20077;-60
2022/05/01 05:45:25;;;;;;;16.77;12.25;;;;;;;10.55;68.05;102361.63;5092367;28;20077;-60
2022/05/01 05:47:50;;;;;;;18.85;13.30;;;;;;;10.64;67.58;102361.03;5092076;28;20410;-60
2022/05/01 05:50:16;;;;;;;18.13;12.30;;;;;;;10.63;67.45;102361.88;5092081;28;20416;-62
2022/05/01 05:52:42;;;;;;;16.65;11.70;;;;;;;10.67;67.52;102366.44;5092069;28;20095;-60
2022/05/01 05:55:08;;;;;;;17.33;12.35;;;;;;;10.73;67.44;102364.00;5091892;28;20450;-60
2022/05/01 05:57:33;;;;;;;17.50;12.60;;;;;;;10.73;67.49;102364.88;5092122;28;20442;-62
2022/05/01 05:59:58;;;;;;;16.60;11.95;;;;;;;10.78;67.66;102375.63;5091927;28;20020;-60
2022/05/01 06:02:24;;;;;;;16.88;12.30;;;;;;;10.81;67.15;102365.16;5092222;28;20024;-60
2022/05/01 06:04:49;;;;;;;17.75;12.35;;;;;;;10.92;66.94;102368.16;5091875;28;20080;-60
2022/05/01 06:07:15;;;;;;;18.70;13.38;;;;;;;10.91;67.06;102375.19;5091799;28;20039;-60
2022/05/01 06:09:40;;;;;;;18.63;12.48;;;;;;;10.96;66.72;102370.03;5092816;28;20050;-60
2022/05/01 06:12:06;;;;;;;17.20;13.00;;;;;;;10.97;67.28;102369.22;5095924;28;20473;-60
2022/05/01 06:14:31;;;;;;;19.02;13.13;;;;;;;11.04;67.00;102372.09;5095478;28;20024;-60
2022/05/01 06:16:56;;;;;;;21.77;13.20;;;;;;;11.11;66.69;102369.69;5095636;28;20025;-60
2022/05/01 06:19:22;;;;;;;19.50;13.45;;;;;;;11.17;66.19;102376.06;5095601;28;20027;-60
2022/05/01 06:21:47;;;;;;;18.80;13.43;;;;;;;11.26;66.40;102380.75;5095462;28;20279;-60
2022/05/01 06:24:12;;;;;;;20.17;13.80;;;;;;;11.21;66.16;102380.59;5095400;28;20028;-60
2022/05/01 06:26:38;;;;;;;20.40;14.32;;;;;;;11.21;66.36;102375.31;5095837;28;20047;-60
2022/05/01 06:29:04;;;;;;;23.20;14.00;;;;;;;11.25;66.14;102384.25;5096486;28;20067;-60
2022/05/01 06:31:29;;;;;;;20.30;14.13;;;;;;;11.25;66.16;102381.59;5095604;28;20054;-60
2022/05/01 06:33:55;;;;;;;21.23;13.27;;;;;;;11.31;65.86;102372.97;5096212;28;20391;-61
2022/05/01 06:36:20;;;;;;;20.25;13.20;;;;;;;11.41;66.15;102377.72;5095330;28;20374;-60
2022/05/01 06:38:47;;;;;;;18.63;13.45;;;;;;;11.52;65.86;102382.50;5095068;28;20469;-61
2022/05/01 06:41:14;;;;;;;18.20;13.35;;;;;;;11.54;65.72;102387.84;5095155;28;20028;-60
2022/05/01 06:43:39;;;;;;;19.60;13.60;;;;;;;11.55;65.54;102386.97;5095026;28;20029;-60
2022/05/01 06:46:05;;;;;;;22.20;14.07;;;;;;;11.60;65.57;102385.38;5095193;28;20054;-60
2022/05/01 06:48:30;;;;;;;19.15;14.10;;;;;;;11.65;66.05;102377.56;5077124;28;20043;-61
2022/05/01 06:50:55;;;;;;;17.02;13.18;;;;;;;11.75;66.00;102380.56;5095080;28;20031;-60
2022/05/01 06:53:21;;;;;;;24.00;14.35;;;;;;;11.74;65.92;102386.72;5094507;28;20024;-61
2022/05/01 06:55:47;;;;;;;18.90;14.13;;;;;;;11.85;65.38;102394.09;5095196;28;20020;-61
2022/05/01 06:58:13;;;;;;;18.50;13.30;;;;;;;11.91;65.50;102386.38;5094893;28;20024;-63
2022/05/01 07:00:38;;;;;;;19.70;13.55;;;;;;;12.00;65.18;102389.28;5094828;28;20060;-60
2022/05/01 07:03:04;;;;;;;18.30;13.65;;;;;;;11.98;65.18;102383.91;5094993;28;20464;-60
2022/05/01 07:05:29;;;;;;;19.77;14.13;;;;;;;12.00;65.05;102382.22;5094783;28;20469;-60
2022/05/01 07:07:54;;;;;;;20.58;13.35;;;;;;;12.08;64.93;102377.16;5094774;28;20031;-60
2022/05/01 07:10:26;;;;;;;19.48;13.68;;;;;;;12.16;64.45;102372.97;5094355;28;20024;-60
2022/05/01 07:12:52;;;;;;;21.63;13.88;;;;;;;12.20;64.54;102369.53;5094490;28;20107;-62
2022/05/01 07:15:17;;;;;;;16.10;11.88;;;;;;;12.32;64.25;102378.69;5094477;28;20111;-60
2022/05/01 07:17:43;;;;;;;17.30;13.40;;;;;;;12.37;63.66;102375.31;5094668;28;20055;-60
2022/05/01 07:20:09;;;;;;;17.70;13.40;;;;;;;12.46;63.09;102372.94;5094310;28;20031;-60
2022/05/01 07:22:35;;;;;;;19.58;12.93;;;;;;;12.57;62.83;102374.97;5093830;28;20028;-60
2022/05/01 07:25:00;;;;;;;20.15;13.60;;;;;;;12.63;61.99;102375.13;5094167;28;20032;-60
2022/05/01 07:27:26;;;;;;;17.35;12.77;;;;;;;12.70;62.01;102375.34;5094340;28;20052;-61
2022/05/01 07:29:51;;;;;;;20.50;12.73;;;;;;;12.84;61.69;102380.09;5094130;28;20470;-60
2022/05/01 07:32:16;;;;;;;16.77;12.23;;;;;;;12.90;61.23;102389.13;5076047;28;20107;-60
2022/05/01 07:34:42;;;;;;;18.38;13.10;;;;;;;12.96;60.74;102380.44;5094172;28;20020;-60
2022/05/01 07:37:07;;;;;;;18.73;12.57;;;;;;;13.03;60.36;102377.09;5094111;28;20028;-60
2022/05/01 07:39:33;;;;;;;20.58;12.55;;;;;;;13.07;59.67;102378.06;5093885;28;20433;-60
2022/05/01 07:41:59;;;;;;;19.75;12.35;;;;;;;13.14;59.04;102379.97;5096614;28;20024;-60
2022/05/01 07:44:24;;;;;;;15.50;11.73;;;;;;;13.23;58.94;102385.56;5094178;28;20062;-60
2022/05/01 07:46:51;;;;;;;18.25;11.48;;;;;;;13.36;58.63;102385.03;5094026;28;20025;-60
2022/05/01 07:49:17;;;;;;;19.13;11.73;;;;;;;13.46;58.46;102391.44;5093933;28;20065;-60
2022/05/01 07:51:42;;;;;;;20.83;11.65;;;;;;;13.50;57.80;102390.66;5093746;28;20055;-61
2022/05/01 07:54:07;;;;;;;14.82;11.18;;;;;;;13.57;57.70;102389.91;5093679;28;20395;-60
2022/05/01 07:56:34;;;;;;;16.45;11.43;;;;;;;13.73;56.43;102388.50;5075130;28;20069;-60
2022/05/01 07:58:59;;;;;;;15.95;11.90;;;;;;;13.87;57.19;102388.81;5075541;28;20020;-60
2022/05/01 08:01:24;;;;;;;15.98;11.98;;;;;;;14.32;56.47;102382.69;5093739;28;20065;-60
2022/05/01 08:06:35;;;;;;;15.85;11.48;;;;;;;15.16;53.10;102381.56;5093654;28;20102;-60
2022/05/01 08:09:00;;;;;;;17.88;11.05;;;;;;;15.55;52.01;102380.44;5093541;28;20024;-61
2022/05/01 08:11:26;;;;;;;16.45;11.05;;;;;;;15.86;51.17;102377.34;5093395;28;20020;-60
2022/05/01 08:13:51;;;;;;;15.57;10.63;;;;;;;16.23;49.78;102380.47;5093358;28;20024;-60
2022/05/01 08:16:17;;;;;;;17.13;11.25;;;;;;;16.61;48.34;102372.00;5093321;28;20024;-60
2022/05/01 08:21:28;;;;;;;13.77;10.90;;;;;;;17.31;45.47;102377.13;5093540;28;20039;-61
2022/05/01 08:23:54;;;;;;;15.20;10.57;;;;;;;17.62;45.21;102373.75;5092899;28;20039;-60
2022/05/01 08:26:21;;;;;;;15.20;9.52;;;;;;;17.83;43.59;102370.34;5093157;28;20359;-60
2022/05/01 08:28:46;;;;;;;17.50;10.40;;;;;;;17.85;43.52;102371.22;5092927;28;20414;-60
2022/05/01 08:31:12;;;;;;;13.82;9.63;;;;;;;18.11;44.40;102370.47;5093009;28;20112;-60
2022/05/01 08:33:37;;;;;;;15.27;10.13;;;;;;;18.44;42.01;102362.53;5092042;28;20038;-60
2022/05/01 08:36:06;;;;;;;12.85;9.80;;;;;;;18.57;42.15;102359.91;5093072;28;20107;-61
2022/05/01 08:38:33;;;;;;;15.98;9.93;;;;;;;18.58;42.29;102370.59;5093043;28;20097;-60
2022/05/01 08:40:58;;;;;;;15.90;10.20;;;;;;;18.64;41.29;102362.59;5093237;28;20106;-60
2022/05/01 08:43:26;;;;;;;11.32;8.68;;;;;;;18.92;40.77;102363.53;5092849;28;20499;-61
2022/05/01 08:46:19;;;;;;;14.95;9.68;;;;;;;19.11;41.13;102359.09;5092777;28;20028;-60
2022/05/01 08:49:04;;;;;;;13.15;9.70;;;;;;;19.11;40.02;102358.19;5092993;28;20360;-60
2022/05/01 08:51:34;;;;;;;12.73;9.57;;;;;;;19.03;39.24;102363.56;5092791;28;20028;-60
2022/05/01 08:54:05;;;;;;;11.85;8.63;;;;;;;19.07;39.45;102362.66;5092540;28;20047;-60
2022/05/01 08:56:33;;;;;;;10.30;8.52;;;;;;;19.11;38.81;102350.16;5092666;28;20446;-61
2022/05/01 08:59:00;;;;;;;10.10;7.15;;;;;;;19.14;37.26;102347.44;5092683;28;20075;-60
2022/05/01 09:01:26;;;;;;;13.23;7.40;;;;;;;19.17;36.48;102351.03;5092361;28;20392;-61
2022/05/01 09:03:52;;;;;;;11.23;7.53;;;;;;;19.01;37.16;102343.88;5092534;28;20107;-61
2022/05/01 09:06:18;;;;;;;8.15;6.25;;;;;;;18.72;35.50;102347.47;5092451;28;20020;-60
2022/05/01 09:08:44;;;;;;;7.30;5.75;;;;;;;18.52;36.02;102349.19;5092659;28;20020;-61
2022/05/01 09:13:53;;;;;;;7.07;5.30;;;;;;;18.48;32.91;102356.31;5092803;28;20035;-60
2022/05/01 09:16:19;;;;;;;8.57;6.30;;;;;;;18.52;36.18;102350.06;5092331;28;20024;-61
2022/05/01 09:18:46;;;;;;;9.18;6.00;;;;;;;18.64;36.77;102353.66;5092958;28;20039;-60
2022/05/01 09:21:12;;;;;;;12.98;6.18;;;;;;;18.59;34.34;102345.63;5092541;28;20394;-61
2022/05/01 09:23:39;;;;;;;7.55;5.45;;;;;;;18.94;33.23;102348.38;5092461;28;20438;-60
2022/05/01 09:26:10;;;;;;;7.47;4.95;;;;;;;19.17;32.26;102353.72;5092338;28;20393;-61
2022/05/01 09:28:37;;;;;;;7.82;5.60;;;;;;;19.31;32.74;102347.44;5092430;28;20424;-61
2022/05/01 09:31:05;;;;;;;10.00;5.43;;;;;;;19.15;31.94;102347.47;5074217;28;20024;-60
2022/05/01 09:33:31;;;;;;;7.53;5.15;;;;;;;19.36;31.28;102354.59;5092234;28;20381;-61
2022/05/01 09:35:56;;;;;;;8.95;5.57;;;;;;;19.47;31.58;102343.84;5092699;28;20016;-60
2022/05/01 09:38:23;;;;;;;7.45;5.05;;;;;;;19.67;30.90;102352.78;5092206;28;20052;-60
2022/05/01 09:40:55;;;;;;;7.93;5.50;;;;;;;19.94;30.01;102354.44;5092472;28;20027;-61
2022/05/01 09:43:43;;;;;;;6.30;5.03;;;;;;;20.08;29.22;102343.66;5092014;28;20055;-61
2022/05/01 09:46:32;;;;;;;9.18;5.32;;;;;;;19.87;31.38;102343.75;5095459;28;20039;-61
2022/05/01 09:49:10;;;;;;;8.23;5.43;;;;;;;19.92;29.27;102350.00;5096146;28;20439;-61
2022/05/01 09:51:46;;;;;;;9.82;5.47;;;;;;;19.98;29.09;102350.84;5096403;28;20478;-61
2022/05/01 09:54:25;;;;;;;8.00;5.68;;;;;;;20.05;30.07;102350.84;5096020;28;20396;-61
2022/05/01 09:56:51;;;;;;;8.13;5.40;;;;;;;19.84;28.87;102349.16;5096270;28;20058;-61
2022/05/01 09:59:18;;;;;;;8.25;6.05;;;;;;;19.86;29.47;102350.91;5095962;28;20058;-60
2022/05/01 10:02:06;;;;;;;7.85;5.40;;;;;;;19.90;30.14;102344.63;5096114;28;20471;-61
2022/05/01 10:04:35;;;;;;;11.00;5.60;;;;;;;20.15;29.20;102345.41;5095868;28;20103;-61
2022/05/01 10:07:03;;;;;;;8.52;5.43;;;;;;;20.57;28.72;102348.78;5077916;28;20032;-61
2022/05/01 10:09:30;;;;;;;8.45;5.80;;;;;;;20.85;28.34;102346.78;5095742;28;20054;-61
2022/05/01 10:12:06;;;;;;;11.65;6.07;;;;;;;20.97;27.73;102346.69;5095676;28;20047;-61
2022/05/01 10:14:32;;;;;;;8.93;6.30;;;;;;;20.58;28.79;102344.31;5095660;28;20036;-61
2022/05/01 10:17:01;;;;;;;8.40;6.15;;;;;;;19.98;29.10;102344.59;5095682;28;20065;-61
2022/05/01 10:19:26;;;;;;;11.57;5.78;;;;;;;19.82;30.92;102341.09;5095843;28;20107;-61
2022/05/01 10:21:56;;;;;;;9.85;6.30;;;;;;;19.60;29.48;102342.03;5095420;28;20481;-62
2022/05/01 10:24:22;;;;;;;9.25;5.90;;;;;;;19.51;29.76;102341.16;5095725;28;20051;-61
2022/05/01 10:26:52;;;;;;;11.82;5.65;;;;;;;19.36;29.93;102330.47;5095360;28;20326;-61
2022/05/01 10:32:21;;;;;;;10.77;5.70;;;;;;;19.19;31.21;102334.97;5095564;28;20183;-60
2022/05/01 10:32:51;;;;;;;7.15;5.68;;;;;;;19.10;30.91;102333.19;5094968;28;20074;-62
2022/05/01 10:35:54;;;;;;;9.93;5.97;;;;;;;18.96;31.66;102334.97;5077150;28;20072;-61
2022/05/01 10:38:23;;;;;;;8.18;5.40;;;;;;;18.83;30.75;102327.81;5095283;28;20031;-62
2022/05/01 10:40:54;;;;;;;8.35;5.72;;;;;;;18.90;30.81;102324.25;5095143;28;20428;-61
2022/05/01 10:43:28;;;;;;;8.85;5.57;;;;;;;19.07;31.08;102319.78;5095306;28;20040;-61
2022/05/01 10:45:56;;;;;;;7.60;5.57;;;;;;;18.89;30.88;102326.06;5095436;28;20032;-61
2022/05/01 10:48:35;;;;;;;9.07;5.78;;;;;;;18.95;31.68;102318.00;5094996;28;20028;-61
2022/05/01 10:51:30;;;;;;;8.48;5.75;;;;;;;19.03;32.03;102320.69;5095347;28;20436;-61
2022/05/01 10:54:17;;;;;;;9.48;5.90;;;;;;;18.92;31.93;102320.66;5079953;28;20504;-62
2022/05/01 10:56:50;;;;;;;10.45;6.35;;;;;;;18.58;31.70;102309.03;5094169;28;20473;-62
2022/05/01 10:59:33;;;;;;;11.35;6.78;;;;;;;18.50;32.72;102305.47;5094669;28;20059;-61
2022/05/01 11:02:03;;;;;;;13.13;6.72;;;;;;;18.02;32.77;102301.75;5095113;28;20036;-62
2022/05/01 11:04:32;;;;;;;9.35;6.75;;;;;;;18.11;33.00;102303.56;5076241;28;20099;-62
2022/05/01 11:07:03;;;;;;;10.13;6.63;;;;;;;18.31;32.78;102306.31;5095103;28;20020;-62
2022/05/01 11:09:34;;;;;;;11.30;7.07;;;;;;;18.37;32.75;102298.28;5094564;28;20024;-63
2022/05/01 11:12:01;;;;;;;8.43;6.22;;;;;;;18.49;32.73;102295.63;5094822;28;20034;-62
2022/05/01 11:14:49;;;;;;;7.93;5.85;;;;;;;18.72;32.19;102287.66;5094445;28;20032;-63
2022/05/01 11:17:28;;;;;;;9.18;6.07;;;;;;;18.76;32.27;102293.03;5094860;28;20125;-62
2022/05/01 11:19:53;;;;;;;10.02;6.28;;;;;;;18.86;32.23;102298.38;5096467;28;20039;-63
2022/05/01 11:22:26;;;;;;;9.57;6.70;;;;;;;18.92;31.64;102291.22;5096352;28;20025;-65
2022/05/01 11:24:51;;;;;;;8.60;6.10;;;;;;;19.07;31.79;102290.31;5098535;28;20042;-63
2022/05/01 11:27:18;;;;;;;9.00;6.30;;;;;;;19.16;31.53;102279.59;5096497;28;20024;-62
2022/05/01 11:30:13;;;;;;;9.18;6.03;;;;;;;19.37;32.16;102281.31;5094444;28;20030;-61
2022/05/01 11:33:01;;;;;;;10.25;6.13;;;;;;;19.42;31.90;102278.63;5094403;28;20047;-61
2022/05/01 11:36:01;;;;;;;9.65;6.20;;;;;;;19.18;32.29;102269.72;5094045;28;20032;-62
2022/05/01 11:38:42;;;;;;;10.82;6.70;;;;;;;19.20;31.82;102273.31;5094349;28;20408;-61
2022/05/01 11:41:11;;;;;;;9.60;6.78;;;;;;;18.99;31.30;102268.00;5093726;28;20027;-61
2022/05/01 11:43:36;;;;;;;9.90;6.63;;;;;;;19.15;31.87;102272.44;5093760;28;20055;-61
2022/05/01 11:46:04;;;;;;;9.30;6.70;;;;;;;19.06;32.70;102261.75;5075723;28;20075;-62
2022/05/01 11:48:30;;;;;;;10.50;6.65;;;;;;;19.22;32.47;102262.59;5093925;28;20032;-62